INFORMACIÓN METAR y TAF
METAR FOR LERS
ADDS - METARS form results

(2107 UTC 23 October 2019)
Data provider http://aviationweather.gov/metar/data/
 
METAR text: LERS 232100Z 03003KT 360V080 9999 FEW020 13/13 Q1009
Conditions at: LERS (REUS (CIV/MIL) , ES) observed 2100 UTC 23 October 2019
Temperature: 13.0°C (55°F)
Dewpoint: 13.0°C (55°F) [RH = 100%]
Pressure (altimeter): 29.79 inches Hg (1009.0 mb)
Winds: from the NNE (30 degrees) at 3 MPH (3 knots; 1.5 m/s)
Visibility: 6 or more miles (10+ km)
Ceiling: at least 12,000 feet AGL
Clouds: few clouds at 2000 feet AGL
Weather: no significant weather observed at this time

METAR text: LERS 232030Z VRB02KT 9999 FEW020 14/12 Q1009
Conditions at: LERS (REUS (CIV/MIL) , ES) observed 2030 UTC 23 October 2019
Temperature: 14.0°C (57°F)
Dewpoint: 12.0°C (54°F) [RH = 88%]
Pressure (altimeter): 29.79 inches Hg (1009.0 mb)
Winds: variable direction winds at 2 MPH (2 knots; 1.0 m/s)
Visibility: 6 or more miles (10+ km)
Ceiling: at least 12,000 feet AGL
Clouds: few clouds at 2000 feet AGL
Weather: no significant weather observed at this time

Forecast for: LERS (REUS (CIV/MIL) , ES)
Text: TAF LERS 232000Z 2321/2421 VRB04KT 9999 FEW030 TX21/2412Z TN10/2406Z
Forecast period: 2100 UTC 23 October 2019 to 1200 UTC 24 October 2019
Forecast type: FROM: standard forecast or significant change
Winds: variable direction winds at 5 MPH (4 knots; 2.1 m/s)
Visibility: 6 or more miles 10+ km)
Ceiling: at least 12,000 feet AGL
Clouds: few clouds at 3000 feet AGL
Weather: no significant weather forecast for this period
Text: BECMG 2412/2414 30010KT
Forecast period: 1200 to 1700 UTC 24 October 2019
Forecast type: BECOMING: Conditions expected to become as follows by 1400 UTC 24 October 2019
Winds: from the WNW (300 degrees) at 12 MPH (10 knots; 5.1 m/s)
Visibility: 6 or more miles 10+ km)
Ceiling: at least 12,000 feet AGL
Clouds: few clouds at 3000 feet AGL
Weather: no significant weather forecast for this period
Text: BECMG 2417/2419 VRB04KT
Forecast period: 1700 to 2100 UTC 24 October 2019
Forecast type: BECOMING: Conditions expected to become as follows by 1900 UTC 24 October 2019
Winds: variable direction winds at 5 MPH (4 knots; 2.1 m/s)
Visibility: 6 or more miles 10+ km)
Ceiling: at least 12,000 feet AGL
Clouds: few clouds at 3000 feet AGL
Weather: no significant weather forecast for this period

 MAPA DE AEROPUERTO

 INFORMACIÓN DE PISTA

 FRECUANCIAS DEL AEROPUERTO
Tipo APP Nombre APP Frecuencia 118.15 MHZ
Tipo GND Nombre GND Frecuencia 121.7 MHZ
Tipo TWR Nombre TWR Frecuencia 118.15 MHZ

 RADIO AYUDAS DEL AEROPUERTO
Tipo VOR-DME Nombre Reus Frecuencia 114200 KHZ
Tipo NDB Nombre Reus Frecuencia 424 KHZ